AirNav   Everest Fuels
 
 1098 users online  

06NJ J&J New Brunswick Helistop Heliport
New Brunswick, New Jersey, USA

GOING TO NEW BRUNSWICK?


FAA INFORMATION EFFECTIVE 22 APRIL 2021

Location

FAA Identifier: 06NJ
Lat/Long: 40-30-06.6139N 074-26-44.6460W
40-30.110232N 074-26.744100W
40.5018372,-74.4457350
(estimated)
Elevation: 23 ft. / 7 m
Time zone: UTC -4 (UTC -5 during Standard Time)
Zip code: 08901

Heliport Operations

Heliport use: Private use. Permission required prior to landing
Activation date: 07/2014
Control tower: no
ARTCC: NEW YORK CENTER
FSS: MILLVILLE FLIGHT SERVICE STATION
NOTAMs facility: FDC (NOTAM-D service not available)
Attendance: CONTINUOUS
Wind indicator: lighted
Segmented circle: no
Lights: SS-SR
Beacon: white-green-yellow (heliport)
Operates sunset to sunrise.

Heliport Communications

WX AWOS-3 at LDJ (11 nm NE): 124.025 (908-862-7383)
WX ASOS at SMQ (13 nm NW): 120.6 (908-722-2139)
WX ASOS at EWR (17 nm NE): PHONE 973-621-2892
WX AWOS-3 at MMU (18 nm N): PHONE 973-290-0135

Nearby radio navigation aids

VOR radial/distance  VOR name  Freq  Var
SBJr120/14.4SOLBERG VOR/DME112.9010W
COLr322/17.3COLTS NECK VOR/DME115.4011W
RBVr017/18.1ROBBINSVILLE VORTAC113.8010W
BWZr147/24.7BROADWAY VOR/DME114.2011W
ARDr065/25.8YARDLEY VOR/DME108.2010W
CRIr266/26.0CANARSIE VOR/DME112.3011W
TEBr231/27.2TETERBORO VOR/DME108.4011W
GXUr025/30.3MC GUIRE VORTAC110.6012W
LGAr249/31.2LA GUARDIA VOR/DME113.1012W
JFKr268/31.7KENNEDY VOR/DME115.9012W
SAXr184/34.2SPARTA VORTAC115.7011W
STWr158/35.3STILLWATER VOR/DME109.6011W

 
NDB name  Hdg/Dist  Freq  Var  ID
CHATHAM196/14.425413WCAT -.-. .- -
LAKEHURST001/27.939611WNEL -. . .-..

Heliport Services

Runway Information

Helipad H1

Dimensions: 44 x 44 ft. / 13 x 13 m
Surface: asphalt
Runway edge lights: PERI
Traffic pattern: leftleft

Heliport Ownership and Management from official FAA records

Ownership: Privately-owned
Owner: JOHNSON & JOHNSON
ONE JOHNSON & JOHNSON PLAZA
NEW BRUNSWICK, NJ
Phone 609-883-7723
Manager: CARL SORG
1 PITCAIRN AVE
WEST TRENTON, NJ 08628
Phone 609-883-7723

Additional Remarks

FOR CD CTC NEW YORK APCH AT 800-645-3206.

Instrument Procedures

There are no published instrument procedures at 06NJ.

Some nearby airports with instrument procedures:

47N - Central Jersey Regional Airport (7 nm W)
3N6 - Old Bridge Airport (11 nm SE)
KLDJ - Linden Airport (11 nm NE)
39N - Princeton Airport (12 nm SW)
KSMQ - Somerset Airport (13 nm NW)
N51 - Solberg-Hunterdon Airport (14 nm W)
KEWR - Newark Liberty International Airport (17 nm NE)
KMMU - Morristown Municipal Airport (18 nm N)
N87 - Trenton-Robbinsville Airport (19 nm S)
 
Loc | Ops | Rwys | IFR | FBO | Links
Com | Nav | Svcs | Stats | Notes
Aerial photo
No photo
 
Airport distance calculator
Flying to J&J New Brunswick Helistop Heliport? Find the distance to fly.

From to 06NJ

Sunrise and sunset
Times for 15-May-2021
 Local
(UTC-4)
 Zulu
(UTC)
Morning civil twilight05:1109:11
Sunrise05:4209:42
Sunset20:0600:06
Evening civil twilight20:3700:37

Current date and time
Zulu (UTC)  15-May-2021 21:26:30
Local (UTC-4)  15-May-2021 17:26:30
 
METAR
KLDJ 
11nm NE 
152115Z AUTO 15007KT 10SM SCT120 25/M01 A3019 RMK AO2 T02451012
KSMQ 
12nm NW 
ASOS 120.60 908-722-2139
152053Z AUTO 00000KT 10SM SCT120 24/02 A3018 RMK AO2 SLP220 T02440017 57011
KEWR 
17nm NE 
152051Z 12010KT 10SM SCT100 BKN140 BKN250 25/M01 A3019 RMK AO2 SLP224 T02501006 58008
KMMU 
17nm N 
152045Z 00000KT 10SM BKN250 23/03 A3020
KTTN 
21nm SW 
ASOS 133.70 609-538-8690
152053Z 22008KT 10SM BKN110 20/06 A3021 RMK AO2 SLP224 T02000056 56002
TAF
KEWR 
17nm NE 
151741Z 1518/1624 14006KT P6SM FEW050 SCT100 FM151900 16009KT P6SM SCT050 SCT080 FM160100 20005KT P6SM SCT050 SCT080 FM160500 VRB05KT P6SM BKN250 FM161500 23005KT P6SM FEW080 BKN250 FM161900 17007KT P6SM SCT080 BKN250
NOTAMs
Click for the latest NOTAMs
NOTAMs are issued by the DoD/FAA and will open in a separate window not controlled by AirNav.

 

 
 

Would you like to see your business listed on this page?

 If your business provides an interesting product or service to pilots, flight crews, aircraft, or users of the J&J New Brunswick Helistop Heliport, you should consider listing it here.  To start the listing process, click on the button below
 
Add a business
 

Other Pages about J&J New Brunswick Helistop Heliport

Update a link
 
Copyright © AirNav, LLC. All rights reserved. Privacy Policy  Contact